Saint Mary, Montana
Current Conditions -  °F | °C
As of 11:56 PM on Wednesday 26 Nov 2014 (Local Time) from KCTB Reporting Station
Moderate Fog Moderate Fog  
Wind Chill: -9°   Ceiling: 100
Heat Index: -3°   Visibility: 0.25mi
Dew Point: -3°   Wind: 14mph
Humidity: 96%   Direction: 150°SSE
Pressure: 29.93"   Gusts: NA
Location:  48.5484°N, 112.952°W
Report Text: KCTB 270656Z AUTO 15012KT 1/4SM FZFG VV001 M03/M03 A2993 RMK AO2 SLP171 I1005 T10281033 410111039
Loading
Personal Weather Stations






























Interactive Weather Map New forecast layout! Learn more

10-Day Weather Forecast

Advertisements
Track Severe Weather on mobile